Time;durP1;ratioP1;P1;durP2;ratioP2;P2;SDS_P1;SDS_P2;PMS_P1;PMS_P2;Temp;Humidity;BMP_temperature;BMP_pressure;BME280_temperature;BME280_humidity;BME280_pressure;Samples;Min_cycle;Max_cycle;Signal;HPM_P1;HPM_P2
2022/01/12 00:01:09;;;;;;;5.10;4.78;;;;;;;3.46;100.00;103602.88;6248197;23;20001;-68
2022/01/12 00:03:34;;;;;;;;;;;;;;;3.65;100.00;103613.09;6249090;23;20380;-68
2022/01/12 00:06:01;;;;;;;5.93;5.55;;;;;;;3.58;100.00;103624.28;6221810;23;19910;-68
2022/01/12 00:08:26;;;;;;;4.05;3.78;;;;;;;3.61;100.00;103619.13;6248309;23;20054;-68
2022/01/12 00:10:52;;;;;;;4.15;3.90;;;;;;;3.64;100.00;103627.09;6249056;23;19996;-68
2022/01/12 00:13:17;;;;;;;3.55;3.35;;;;;;;3.77;100.00;103632.72;6248415;23;20005;-68
2022/01/12 00:15:43;;;;;;;5.28;4.78;;;;;;;3.73;100.00;103629.97;6248495;23;20085;-67
2022/01/12 00:18:08;;;;;;;5.60;5.28;;;;;;;3.72;100.00;103630.84;6221944;23;20392;-68
2022/01/12 00:20:34;;;;;;;4.43;3.97;;;;;;;3.63;100.00;103627.91;6221776;23;20091;-67
2022/01/12 00:23:00;;;;;;;3.53;3.33;;;;;;;3.69;100.00;103625.50;6221923;23;20004;-67
2022/01/12 00:25:29;;;;;;;5.32;4.97;;;;;;;3.65;100.00;103615.72;6248829;23;20049;-67
2022/01/12 00:33:22;;;;;;;3.67;3.47;;;;;;;3.60;100.00;103609.44;6249510;23;20022;-67
2022/01/12 00:35:53;;;;;;;4.70;4.32;;;;;;;3.51;100.00;103607.44;6222035;23;20008;-67
2022/01/12 00:38:21;;;;;;;3.67;3.47;;;;;;;3.55;100.00;103601.41;6251892;23;20020;-67
2022/01/12 00:40:50;;;;;;;3.97;3.78;;;;;;;3.46;100.00;103603.78;6250594;23;20066;-66
2022/01/12 00:43:17;;;;;;;3.63;3.42;;;;;;;3.55;100.00;103608.38;6251231;23;20439;-68
2022/01/12 00:45:46;;;;;;;4.43;4.15;;;;;;;3.47;100.00;103612.56;6224610;23;20055;-68
2022/01/12 00:48:12;;;;;;;5.05;4.75;;;;;;;3.45;100.00;103617.72;6252450;23;20004;-68
2022/01/12 00:50:38;;;;;;;4.13;3.88;;;;;;;3.46;100.00;103632.66;6251819;23;20004;-68
2022/01/12 00:53:04;;;;;;;4.18;3.97;;;;;;;3.67;100.00;103640.31;6251383;23;20034;-67
2022/01/12 00:55:30;;;;;;;4.15;3.88;;;;;;;3.70;100.00;103637.78;6251250;23;20004;-68
2022/01/12 00:57:58;;;;;;;3.95;3.70;;;;;;;3.59;100.00;103636.56;6251023;23;20030;-69
2022/01/12 01:00:25;;;;;;;6.20;5.80;;;;;;;3.78;100.00;103636.25;6252154;23;20027;-68
2022/01/12 01:02:50;;;;;;;3.97;3.75;;;;;;;3.56;100.00;103632.09;6251930;23;20008;-68
2022/01/12 01:05:20;;;;;;;3.65;3.45;;;;;;;3.52;100.00;103624.06;6251420;23;20008;-68
2022/01/12 01:07:46;;;;;;;5.68;4.95;;;;;;;3.70;100.00;103619.38;6223891;23;20008;-68
2022/01/12 01:10:15;;;;;;;4.28;4.05;;;;;;;3.55;100.00;103616.28;6251005;23;20473;-67
2022/01/12 01:12:41;;;;;;;4.70;4.43;;;;;;;3.60;100.00;103622.56;6251473;23;20044;-67
2022/01/12 01:15:11;;;;;;;3.95;3.75;;;;;;;3.51;100.00;103617.03;6251758;23;20011;-68
2022/01/12 01:25:44;;;;;;;3.42;3.22;;;;;;;3.50;100.00;103602.13;6250815;23;20015;-68
2022/01/12 01:28:11;;;;;;;3.97;3.78;;;;;;;3.47;100.00;103604.69;6250186;23;20004;-68
2022/01/12 01:30:38;;;;;;;3.30;3.10;;;;;;;3.44;100.00;103601.91;6223902;23;20011;-68
2022/01/12 01:33:07;;;;;;;5.43;5.07;;;;;;;3.39;100.00;103587.78;6251433;23;20266;-68
2022/01/12 01:35:36;;;;;;;4.57;4.38;;;;;;;3.42;100.00;103603.63;6249931;23;20429;-68
2022/01/12 01:38:03;;;;;;;4.30;4.10;;;;;;;3.33;100.00;103612.13;6250229;23;20047;-68
2022/01/12 01:40:30;;;;;;;4.45;4.18;;;;;;;3.33;100.00;103619.09;6249792;23;20425;-68
2022/01/12 01:43:10;;;;;;;4.40;3.40;;;;;;;3.43;100.00;103629.06;6250450;23;20032;-68
2022/01/12 01:53:50;;;;;;;2.90;2.80;;;;;;;3.56;100.00;103655.72;6249564;23;20019;-67
2022/01/12 01:56:18;;;;;;;3.75;3.55;;;;;;;3.47;100.00;103662.47;6251066;23;20020;-68
2022/01/12 01:58:44;;;;;;;5.22;4.93;;;;;;;3.53;100.00;103675.78;6250370;23;20004;-67
2022/01/12 02:01:09;;;;;;;4.03;3.83;;;;;;;3.46;100.00;103671.19;6249170;23;20483;-67
2022/01/12 02:03:35;;;;;;;4.70;4.43;;;;;;;3.68;100.00;103678.88;6249767;23;20004;-68
2022/01/12 02:06:00;;;;;;;4.85;4.55;;;;;;;3.68;100.00;103684.13;6248679;23;20069;-68
2022/01/12 02:08:27;;;;;;;4.38;4.18;;;;;;;3.66;100.00;103689.34;6249556;23;20058;-68
2022/01/12 02:10:57;;;;;;;4.22;4.03;;;;;;;3.71;100.00;103700.91;6249756;23;20000;-68
2022/01/12 02:13:23;;;;;;;4.03;3.83;;;;;;;3.58;100.00;103700.47;6250390;23;20437;-68
2022/01/12 02:15:49;;;;;;;5.20;4.90;;;;;;;3.56;100.00;103737.19;6250245;23;20004;-68
2022/01/12 02:40:10;;;;;;;5.00;4.70;;;;;;;3.78;100.00;103760.69;6249608;23;20353;-67
2022/01/12 02:42:38;;;;;;;5.55;5.15;;;;;;;3.75;100.00;103762.34;6249748;23;20425;-68
2022/01/12 02:50:55;;;;;;;4.50;4.20;;;;;;;3.83;100.00;103758.22;6249137;23;20322;-68
2022/01/12 02:56:15;;;;;;;4.82;4.53;;;;;;;3.86;100.00;103751.28;6249941;23;20019;-68
2022/01/12 02:58:42;;;;;;;4.22;4.03;;;;;;;3.76;100.00;103750.97;6222062;23;20024;-68
2022/01/12 03:03:45;;;;;;;3.78;3.35;;;;;;;3.81;100.00;103738.88;6259640;23;20051;-68
2022/01/12 03:06:17;;;;;;;4.68;4.35;;;;;;;3.87;100.00;103744.31;6249270;23;20065;-68
2022/01/12 03:08:42;;;;;;;5.78;5.45;;;;;;;3.95;100.00;103748.06;6249668;23;20388;-67
2022/01/12 03:11:12;;;;;;;4.57;4.18;;;;;;;3.84;100.00;103738.97;6222371;23;20000;-68
2022/01/12 03:13:38;;;;;;;4.57;4.28;;;;;;;3.83;100.00;103738.06;6248960;23;20039;-69
2022/01/12 03:16:13;;;;;;;5.00;4.70;;;;;;;3.81;100.00;103729.25;6248484;23;20000;-68
2022/01/12 03:18:39;;;;;;;5.25;4.95;;;;;;;3.80;100.00;103719.56;6249182;23;20000;-67
2022/01/12 03:21:05;;;;;;;4.25;4.03;;;;;;;3.78;100.00;103723.88;6249311;23;20000;-68
2022/01/12 03:23:32;;;;;;;5.53;5.22;;;;;;;3.83;100.00;103710.91;6248400;23;20019;-68
2022/01/12 03:25:57;;;;;;;5.15;4.85;;;;;;;3.77;100.00;103719.47;6221863;23;20047;-68
2022/01/12 03:28:23;;;;;;;4.40;4.20;;;;;;;3.94;100.00;103735.78;6221666;23;20004;-67
2022/01/12 03:33:49;;;;;;;5.35;5.05;;;;;;;3.92;100.00;103750.59;6259516;23;20015;-69
2022/01/12 03:39:12;;;;;;;5.75;5.35;;;;;;;3.98;100.00;103763.94;6218344;23;20031;-68
2022/01/12 03:41:38;;;;;;;4.20;3.90;;;;;;;3.96;100.00;103765.63;6219090;23;20004;-68
2022/01/12 03:44:07;;;;;;;3.05;2.85;;;;;;;3.99;100.00;103761.34;6218425;23;20036;-68
2022/01/12 03:46:35;;;;;;;4.97;4.68;;;;;;;4.00;100.00;103767.50;6191777;23;20055;-67
2022/01/12 03:49:00;;;;;;;4.47;4.18;;;;;;;3.96;100.00;103773.50;6218087;23;20004;-69
2022/01/12 03:51:26;;;;;;;6.05;5.65;;;;;;;3.97;100.00;103780.56;6218716;23;20078;-68
2022/01/12 03:53:55;;;;;;;7.28;5.55;;;;;;;4.14;100.00;103781.97;6218702;23;20012;-68
2022/01/12 03:56:20;;;;;;;5.25;4.95;;;;;;;3.95;100.00;103777.00;6191362;23;20036;-67
2022/01/12 03:58:46;;;;;;;5.63;5.22;;;;;;;3.89;100.00;103774.19;6191244;23;20066;-69
2022/01/12 04:01:11;;;;;;;5.88;5.47;;;;;;;3.89;100.00;103777.69;6218064;23;20012;-68
2022/01/12 04:03:43;;;;;;;5.13;4.82;;;;;;;4.02;100.00;103781.56;6217763;23;20004;-67
2022/01/12 04:08:53;;;;;;;7.68;7.18;;;;;;;4.14;100.00;103771.44;6218353;23;20043;-68
2022/01/12 04:11:19;;;;;;;5.28;4.97;;;;;;;4.26;100.00;103775.34;6219030;23;20430;-67
2022/01/12 04:13:47;;;;;;;4.05;3.78;;;;;;;4.12;100.00;103768.78;6220053;23;20011;-67
2022/01/12 04:16:13;;;;;;;4.70;4.40;;;;;;;4.03;100.00;103770.22;6193948;23;20016;-68
2022/01/12 04:18:39;;;;;;;5.03;4.72;;;;;;;3.99;100.00;103768.34;6220717;23;20497;-67
2022/01/12 04:21:07;;;;;;;3.78;3.55;;;;;;;4.04;100.00;103767.66;6220005;23;20004;-68
2022/01/12 04:23:35;;;;;;;6.28;5.85;;;;;;;4.00;100.00;103765.75;6220525;23;20444;-68
2022/01/12 04:26:02;;;;;;;5.55;5.15;;;;;;;3.99;100.00;103770.97;6220879;23;19997;-68
2022/01/12 04:28:29;;;;;;;5.47;3.60;;;;;;;4.14;100.00;103772.34;6220785;23;20007;-68
2022/01/12 04:30:56;;;;;;;6.32;4.07;;;;;;;4.06;100.00;103772.94;6219968;23;20012;-68
2022/01/12 04:33:22;;;;;;;5.70;5.20;;;;;;;4.08;100.00;103792.31;6194074;23;20008;-67
2022/01/12 04:35:53;;;;;;;5.03;4.65;;;;;;;4.07;100.00;103794.03;6220751;23;20346;-68
2022/01/12 04:38:20;;;;;;;4.82;4.47;;;;;;;4.14;100.00;103798.66;6243948;23;20066;-68
2022/01/12 04:40:46;;;;;;;5.05;4.60;;;;;;;4.15;100.00;103810.94;6250990;23;20004;-69
2022/01/12 04:43:13;;;;;;;8.15;7.50;;;;;;;4.16;100.00;103803.97;6250798;23;20080;-67
2022/01/12 04:45:57;;;;;;;7.20;5.13;;;;;;;4.08;100.00;103792.31;6223435;23;20008;-69
2022/01/12 04:50:52;;;;;;;4.90;4.53;;;;;;;4.20;100.00;103782.16;6251081;23;20012;-69
2022/01/12 04:53:19;;;;;;;4.20;3.83;;;;;;;4.01;100.00;103767.56;6250403;23;20013;-68
2022/01/12 04:55:47;;;;;;;4.78;4.15;;;;;;;3.92;100.00;103774.28;6250856;23;20055;-68
2022/01/12 04:58:14;;;;;;;5.93;5.53;;;;;;;3.91;100.00;103768.09;6250259;23;20001;-67
2022/01/12 05:00:41;;;;;;;5.50;4.50;;;;;;;3.82;100.00;103774.81;6250068;23;20035;-68
2022/01/12 05:08:49;;;;;;;5.25;4.85;;;;;;;3.76;100.00;103772.00;6250146;23;20078;-67
2022/01/12 05:14:00;;;;;;;4.93;4.60;;;;;;;3.57;100.00;103775.78;6249875;23;20069;-68
2022/01/12 05:16:26;;;;;;;5.68;5.38;;;;;;;3.61;100.00;103787.28;6222308;23;20039;-69
2022/01/12 05:18:53;;;;;;;5.80;5.30;;;;;;;3.59;100.00;103789.88;6224219;23;20085;-68
2022/01/12 05:21:20;;;;;;;5.18;4.68;;;;;;;3.52;100.00;103800.09;6249683;23;20027;-70
2022/01/12 05:23:46;;;;;;;4.97;4.68;;;;;;;3.47;100.00;103804.34;6249145;23;20354;-67
2022/01/12 05:26:12;;;;;;;6.65;6.15;;;;;;;3.55;100.00;103813.34;6249938;23;20008;-68
2022/01/12 05:28:39;;;;;;;6.75;5.88;;;;;;;3.48;100.00;103825.41;6222377;23;20005;-67
2022/01/12 05:31:06;;;;;;;5.05;4.75;;;;;;;3.43;100.00;103824.34;6249560;23;20010;-68
2022/01/12 05:33:32;;;;;;;4.93;4.63;;;;;;;3.39;100.00;103826.84;6249114;23;20422;-67
2022/01/12 05:35:58;;;;;;;5.38;4.60;;;;;;;3.40;100.00;103825.97;6249376;23;20004;-67
2022/01/12 05:38:24;;;;;;;4.68;4.38;;;;;;;3.41;100.00;103825.13;6250671;23;20027;-67
2022/01/12 05:40:55;;;;;;;5.40;5.00;;;;;;;3.43;100.00;103820.81;6221983;23;20040;-67
2022/01/12 05:43:24;;;;;;;3.95;3.72;;;;;;;3.42;100.00;103822.53;6248810;23;20020;-66
2022/01/12 05:45:51;;;;;;;3.75;3.55;;;;;;;3.46;100.00;103823.56;6249624;23;20057;-67
2022/01/12 05:50:52;;;;;;;6.47;6.07;;;;;;;3.50;100.00;103825.47;6248988;23;20035;-66
2022/01/12 05:53:18;;;;;;;4.40;4.13;;;;;;;3.50;100.00;103812.31;6223367;23;20083;-66
2022/01/12 05:55:45;;;;;;;4.53;4.30;;;;;;;3.51;100.00;103822.88;6248891;23;20004;-67
2022/01/12 05:58:11;;;;;;;3.30;3.10;;;;;;;3.50;100.00;103823.69;6248733;23;20059;-66
2022/01/12 06:00:37;;;;;;;4.90;4.10;;;;;;;3.51;100.00;103824.59;6248212;23;20010;-65
2022/01/12 06:03:02;;;;;;;3.80;3.53;;;;;;;3.49;100.00;103836.78;6247021;23;20004;-68
2022/01/12 06:05:28;;;;;;;4.35;4.15;;;;;;;3.51;100.00;103837.75;6246314;23;20004;-67
2022/01/12 06:07:54;;;;;;;3.88;3.63;;;;;;;3.56;100.00;103839.66;6248604;23;20004;-67
2022/01/12 06:10:22;;;;;;;3.80;3.60;;;;;;;3.52;100.00;103847.41;6248612;23;20067;-68
2022/01/12 06:12:48;;;;;;;4.05;3.83;;;;;;;3.50;100.00;103847.34;6248122;23;20028;-67
2022/01/12 06:15:13;;;;;;;5.30;4.93;;;;;;;3.52;100.00;103850.03;6247721;23;20027;-67
2022/01/12 06:17:39;;;;;;;4.07;3.88;;;;;;;3.49;100.00;103853.47;6247525;23;20008;-67
2022/01/12 06:20:06;;;;;;;3.92;3.72;;;;;;;3.51;100.00;103854.41;6247299;23;20082;-67
2022/01/12 06:22:32;;;;;;;3.65;3.45;;;;;;;3.51;100.00;103869.28;6219636;23;20442;-66
2022/01/12 06:24:59;;;;;;;3.90;3.70;;;;;;;3.51;100.00;103877.16;6247742;23;20000;-67
2022/01/12 06:27:28;;;;;;;4.40;4.18;;;;;;;3.47;100.00;103885.78;6249097;23;20017;-67
2022/01/12 06:32:38;;;;;;;4.90;4.60;;;;;;;3.45;100.00;103893.59;6247448;23;20062;-67
2022/01/12 06:35:04;;;;;;;5.50;5.20;;;;;;;3.45;100.00;103897.97;6247805;23;20004;-66
2022/01/12 06:37:29;;;;;;;4.70;4.40;;;;;;;3.51;100.00;103898.19;6247323;23;20437;-67
2022/01/12 06:39:54;;;;;;;4.00;3.80;;;;;;;3.42;100.00;103898.75;6247976;23;20000;-66
2022/01/12 06:42:20;;;;;;;3.40;3.20;;;;;;;3.40;100.00;103903.06;6247966;23;20008;-66
2022/01/12 06:44:47;;;;;;;3.95;3.75;;;;;;;3.34;100.00;103899.31;6248105;23;20114;-67
2022/01/12 06:47:12;;;;;;;3.78;3.58;;;;;;;3.36;100.00;103900.28;6248743;23;20023;-67
2022/01/12 06:49:38;;;;;;;5.40;5.05;;;;;;;3.49;100.00;103897.22;6249164;23;20007;-67
2022/01/12 06:52:03;;;;;;;3.58;3.38;;;;;;;3.29;100.00;103900.88;6247965;23;20011;-67
2022/01/12 06:54:29;;;;;;;2.97;2.85;;;;;;;3.25;100.00;103899.00;6247403;23;20004;-67
2022/01/12 06:56:54;;;;;;;2.90;2.80;;;;;;;3.23;100.00;103905.94;6247746;23;20026;-67
2022/01/12 06:59:19;;;;;;;3.08;2.88;;;;;;;3.17;100.00;103910.13;6220816;23;20035;-66
2022/01/12 07:01:45;;;;;;;2.95;2.85;;;;;;;3.24;100.00;103929.63;6247218;23;20008;-68
2022/01/12 07:04:11;;;;;;;3.40;3.20;;;;;;;3.27;100.00;103927.09;6247741;23;20008;-67
2022/01/12 07:06:36;;;;;;;4.72;4.43;;;;;;;3.24;100.00;103937.50;6247512;23;20004;-67
2022/01/12 07:09:05;;;;;;;3.88;3.65;;;;;;;3.24;100.00;103939.22;6247763;23;19996;-69
2022/01/12 07:11:32;;;;;;;3.67;3.47;;;;;;;3.27;100.00;103936.69;6247135;23;20012;-67
2022/01/12 07:13:57;;;;;;;3.30;3.10;;;;;;;3.29;100.00;103942.91;6247335;23;20004;-68
2022/01/12 07:16:23;;;;;;;4.45;4.18;;;;;;;3.29;100.00;103942.91;6246585;23;20342;-68
2022/01/12 07:18:48;;;;;;;3.78;3.58;;;;;;;3.28;100.00;103955.16;6220259;23;20000;-67
2022/01/12 07:21:13;;;;;;;3.97;3.72;;;;;;;3.36;100.00;103953.69;6220733;23;20085;-67
2022/01/12 07:23:39;;;;;;;3.33;3.13;;;;;;;3.32;100.00;103951.81;6247436;23;19996;-67
2022/01/12 07:26:04;;;;;;;4.63;4.32;;;;;;;3.48;100.00;103955.88;6247263;23;20023;-69
2022/01/12 07:28:29;;;;;;;3.20;3.00;;;;;;;3.39;100.00;103959.06;6247879;23;20086;-66
2022/01/12 07:30:55;;;;;;;2.90;2.80;;;;;;;3.32;100.00;103953.53;6250085;23;20011;-67
2022/01/12 07:33:22;;;;;;;3.15;2.95;;;;;;;3.28;100.00;103959.53;6248872;23;20402;-68
2022/01/12 07:35:49;;;;;;;2.90;2.80;;;;;;;3.31;100.00;103957.00;6246939;23;20062;-69
2022/01/12 07:38:14;;;;;;;3.35;3.15;;;;;;;3.36;100.00;103964.19;6214815;23;20020;-67
2022/01/12 07:40:39;;;;;;;3.10;2.90;;;;;;;3.34;100.00;103965.88;6214098;23;20039;-66
2022/01/12 07:43:06;;;;;;;3.70;3.50;;;;;;;3.28;100.00;103976.16;6214632;23;20289;-66
2022/01/12 07:45:32;;;;;;;2.83;2.63;;;;;;;3.15;100.00;103976.56;6215717;23;20426;-67
2022/01/12 07:47:57;;;;;;;2.88;2.67;;;;;;;3.14;100.00;103978.28;6215909;23;20000;-67
2022/01/12 07:50:23;;;;;;;3.40;3.17;;;;;;;3.15;100.00;103980.06;6218117;23;20001;-67
2022/01/12 07:52:53;;;;;;;3.20;3.00;;;;;;;3.15;100.00;103980.06;6216499;23;20083;-69
2022/01/12 07:55:18;;;;;;;3.38;3.17;;;;;;;3.14;100.00;103996.66;6215120;23;20009;-67
2022/01/12 07:57:44;;;;;;;3.38;3.17;;;;;;;3.16;100.00;104001.97;6216375;23;20013;-66
2022/01/12 08:00:09;;;;;;;2.78;2.67;;;;;;;3.13;100.00;103999.25;6215807;23;20426;-69
2022/01/12 08:02:35;;;;;;;3.42;3.00;;;;;;;3.08;100.00;104003.41;6215682;23;20000;-67
2022/01/12 08:05:00;;;;;;;2.50;2.40;;;;;;;3.14;100.00;104007.16;6215044;23;20005;-67
2022/01/12 08:07:25;;;;;;;2.83;2.70;;;;;;;3.13;100.00;104015.91;6214380;23;20014;-66
2022/01/12 08:09:51;;;;;;;3.30;3.10;;;;;;;3.14;100.00;104022.03;6213687;23;20042;-66
2022/01/12 08:12:16;;;;;;;3.35;3.15;;;;;;;3.13;100.00;104029.03;6214319;23;20001;-69
2022/01/12 08:14:41;;;;;;;3.40;3.22;;;;;;;3.17;100.00;104039.66;6213836;23;20005;-68
2022/01/12 08:17:07;;;;;;;3.42;3.22;;;;;;;3.17;100.00;104032.63;6212602;23;20005;-67
2022/01/12 08:19:37;;;;;;;2.63;2.53;;;;;;;3.22;100.00;104045.94;6216236;23;20012;-67
2022/01/12 08:22:03;;;;;;;2.67;2.47;;;;;;;3.25;100.00;104043.47;6215545;23;20001;-67
2022/01/12 08:24:29;;;;;;;2.38;2.28;;;;;;;3.18;100.00;104047.59;6215835;23;20008;-67
2022/01/12 08:26:54;;;;;;;2.92;2.72;;;;;;;3.27;100.00;104049.66;6216560;23;20084;-67
2022/01/12 08:29:19;;;;;;;3.63;3.38;;;;;;;3.33;100.00;104048.16;6217458;23;20005;-67
2022/01/12 08:31:46;;;;;;;2.47;2.28;;;;;;;3.38;100.00;104057.09;6216364;23;20060;-67
2022/01/12 08:34:12;;;;;;;4.80;2.28;;;;;;;3.31;100.00;104056.81;6216999;23;20036;-68
2022/01/12 08:36:39;;;;;;;3.08;2.88;;;;;;;3.36;100.00;104057.91;6217167;23;20438;-68
2022/01/12 08:39:07;;;;;;;2.47;2.28;;;;;;;3.38;100.00;104053.56;6246727;23;20008;-67
2022/01/12 08:41:32;;;;;;;3.30;3.08;;;;;;;3.44;100.00;104061.69;6247409;23;19999;-66
2022/01/12 08:43:58;;;;;;;3.35;3.08;;;;;;;3.38;100.00;104069.34;6247268;23;20428;-67
2022/01/12 08:46:23;;;;;;;2.47;2.38;;;;;;;3.44;100.00;104074.81;6219970;23;20497;-67
2022/01/12 08:48:49;;;;;;;2.88;2.67;;;;;;;3.36;100.00;104085.03;6246168;23;20066;-67
2022/01/12 08:51:14;;;;;;;1.80;1.70;;;;;;;3.41;100.00;104086.13;6246113;23;20337;-67
2022/01/12 08:53:39;;;;;;;1.88;1.77;;;;;;;3.54;100.00;104087.47;6246188;23;20377;-66
2022/01/12 08:56:05;;;;;;;2.75;2.63;;;;;;;3.47;100.00;104090.72;6246293;23;20054;-67
2022/01/12 08:58:30;;;;;;;3.13;2.92;;;;;;;3.42;100.00;104087.03;6247353;23;20008;-66
2022/01/12 09:01:00;;;;;;;1.95;1.85;;;;;;;3.30;100.00;104097.03;6220888;23;20004;-67
2022/01/12 09:03:25;;;;;;;2.58;2.47;;;;;;;3.29;100.00;104100.50;6249391;23;20011;-67
2022/01/12 09:05:50;;;;;;;3.00;2.75;;;;;;;3.35;100.00;104099.03;6248377;23;20008;-67
2022/01/12 09:08:16;;;;;;;1.80;1.70;;;;;;;3.41;100.00;104111.47;6221377;23;20014;-67
2022/01/12 09:10:41;;;;;;;1.98;1.88;;;;;;;3.41;100.00;104106.22;6248247;23;20004;-67
2022/01/12 09:13:06;;;;;;;2.78;2.63;;;;;;;3.46;100.00;104109.94;6248292;23;20009;-66
2022/01/12 09:15:32;;;;;;;3.45;3.25;;;;;;;3.56;100.00;104114.72;6249331;23;20004;-67
2022/01/12 09:17:58;;;;;;;3.63;3.42;;;;;;;3.72;100.00;104111.84;6250058;23;19996;-68
2022/01/12 09:20:25;;;;;;;2.15;2.05;;;;;;;3.80;100.00;104121.78;6249687;23;20038;-67
2022/01/12 09:22:50;;;;;;;2.80;2.63;;;;;;;3.95;100.00;104118.81;6249135;23;20004;-67
2022/01/12 09:25:16;;;;;;;3.58;3.35;;;;;;;4.02;100.00;104124.34;6249261;23;20087;-68
2022/01/12 09:27:42;;;;;;;3.42;3.22;;;;;;;4.28;100.00;104131.44;6249661;23;20011;-67
2022/01/12 09:30:10;;;;;;;3.40;3.20;;;;;;;4.27;100.00;104140.16;6221879;23;20012;-69
2022/01/12 09:32:36;;;;;;;3.05;2.85;;;;;;;4.33;100.00;104152.66;6248592;23;20015;-68
2022/01/12 09:35:03;;;;;;;2.85;2.65;;;;;;;4.55;100.00;104155.19;6223546;23;20008;-68
2022/01/12 09:37:28;;;;;;;3.35;3.05;;;;;;;4.51;100.00;104148.94;6216556;23;20016;-70
2022/01/12 09:39:54;;;;;;;2.40;2.20;;;;;;;4.44;100.00;104149.53;6218139;23;20019;-70
2022/01/12 09:42:19;;;;;;;4.32;3.08;;;;;;;4.47;100.00;104148.78;6218531;23;20032;-68
2022/01/12 09:44:47;;;;;;;3.08;2.85;;;;;;;4.40;100.00;104152.00;6219646;23;20092;-67
2022/01/12 09:47:14;;;;;;;2.83;2.67;;;;;;;4.40;100.00;104157.28;6215857;23;20083;-66
2022/01/12 09:49:42;;;;;;;3.00;2.80;;;;;;;4.19;100.00;104156.53;6217999;23;20039;-66
2022/01/12 09:52:08;;;;;;;4.13;2.42;;;;;;;4.15;100.00;104165.13;6218120;23;20012;-70
2022/01/12 09:54:34;;;;;;;4.07;3.83;;;;;;;4.29;100.00;104169.16;6214857;23;20000;-69
2022/01/12 09:57:00;;;;;;;3.53;3.33;;;;;;;4.24;100.00;104173.34;6216452;23;20000;-69
2022/01/12 09:59:26;;;;;;;2.88;2.67;;;;;;;4.39;100.00;104171.28;6217342;23;20009;-71
2022/01/12 10:01:52;;;;;;;2.78;2.58;;;;;;;4.29;100.00;104170.06;6221854;23;20400;-68
2022/01/12 10:04:22;;;;;;;3.05;2.85;;;;;;;4.33;100.00;104168.44;6216675;23;20004;-67
2022/01/12 10:06:56;;;;;;;1.80;1.70;;;;;;;4.48;100.00;104163.72;6217594;23;20007;-68
2022/01/12 10:09:33;;;;;;;3.60;2.58;;;;;;;4.51;100.00;104174.34;6217163;23;20008;-68
2022/01/12 10:12:01;;;;;;;3.35;3.15;;;;;;;4.38;100.00;104175.66;6218350;23;20001;-68
2022/01/12 10:14:42;;;;;;;4.45;3.15;;;;;;;4.54;100.00;104169.19;6218771;23;20001;-68
2022/01/12 10:17:09;;;;;;;2.75;2.33;;;;;;;4.59;100.00;104170.25;6217633;23;20008;-67
2022/01/12 10:19:35;;;;;;;3.63;3.08;;;;;;;4.65;100.00;104170.44;6217525;23;20024;-67
2022/01/12 10:22:04;;;;;;;4.10;2.25;;;;;;;4.79;100.00;104176.19;6217241;23;20002;-66
2022/01/12 10:24:29;;;;;;;2.07;1.83;;;;;;;4.83;100.00;104172.81;6215744;23;20005;-67
2022/01/12 10:26:56;;;;;;;2.60;2.00;;;;;;;4.82;100.00;104161.41;6218042;23;20039;-69
2022/01/12 10:29:25;;;;;;;3.45;2.70;;;;;;;4.74;100.00;104147.09;6217270;23;20051;-68
2022/01/12 10:31:59;;;;;;;2.65;2.33;;;;;;;4.64;100.00;104135.34;6217927;23;20280;-68
2022/01/12 10:34:49;;;;;;;4.82;1.85;;;;;;;4.67;100.00;104139.81;6217209;23;20315;-68
2022/01/12 10:37:17;;;;;;;3.17;2.97;;;;;;;4.84;100.00;104141.25;6219806;23;20012;-68
2022/01/12 10:39:45;;;;;;;2.42;2.30;;;;;;;4.94;100.00;104146.00;6246531;23;20035;-67
2022/01/12 10:42:14;;;;;;;2.97;2.67;;;;;;;5.09;100.00;104146.47;6247244;23;20015;-68
2022/01/12 10:44:49;;;;;;;4.50;1.95;;;;;;;5.18;100.00;104151.16;6248199;23;20004;-68
2022/01/12 10:47:26;;;;;;;5.15;2.28;;;;;;;5.17;100.00;104142.34;6219323;23;20011;-67
2022/01/12 10:49:55;;;;;;;4.40;1.52;;;;;;;5.25;100.00;104142.59;6219596;23;20015;-66
2022/01/12 10:52:29;;;;;;;1.75;1.48;;;;;;;4.96;100.00;104127.63;6219146;23;20008;-67
2022/01/12 10:55:01;;;;;;;2.47;2.30;;;;;;;5.04;100.00;104134.94;6245635;23;20038;-67
2022/01/12 10:57:32;;;;;;;2.25;2.05;;;;;;;5.20;100.00;104144.22;6245952;23;20008;-68
2022/01/12 11:00:22;;;;;;;3.15;2.85;;;;;;;5.28;100.00;104156.78;6246916;23;20091;-66
2022/01/12 11:02:51;;;;;;;3.88;2.72;;;;;;;5.38;100.00;104145.69;6248311;23;20004;-68
2022/01/12 11:05:18;;;;;;;4.13;2.80;;;;;;;5.45;100.00;104138.84;6248114;23;20092;-67
2022/01/12 11:07:44;;;;;;;4.38;2.50;;;;;;;5.33;100.00;104134.09;6247389;23;20011;-66
2022/01/12 11:10:10;;;;;;;1.85;1.70;;;;;;;5.45;100.00;104121.28;6220637;23;20110;-68
2022/01/12 11:12:37;;;;;;;2.88;2.55;;;;;;;5.69;100.00;104127.28;6221375;23;20000;-67
2022/01/12 11:15:11;;;;;;;2.63;2.40;;;;;;;5.57;100.00;104116.41;6247110;23;20007;-67
2022/01/12 11:17:40;;;;;;;3.22;2.70;;;;;;;5.53;100.00;104106.59;6246424;23;20004;-66
2022/01/12 11:20:25;;;;;;;2.20;1.98;;;;;;;5.30;100.00;104083.94;6247646;23;20085;-66
2022/01/12 11:23:11;;;;;;;6.18;2.15;;;;;;;5.35;100.00;104078.78;6247230;23;20010;-67
2022/01/12 11:25:37;;;;;;;3.03;2.72;;;;;;;5.34;100.00;104075.25;6247669;23;20003;-66
2022/01/12 11:28:18;;;;;;;6.10;2.58;;;;;;;5.48;100.00;104075.69;6247152;23;20479;-67
2022/01/12 11:31:00;;;;;;;2.92;2.72;;;;;;;5.39;100.00;104078.94;6220105;23;20381;-67
2022/01/12 11:33:31;;;;;;;3.22;2.13;;;;;;;5.46;100.00;104064.19;6246690;23;20004;-66
2022/01/12 11:36:28;;;;;;;2.80;2.53;;;;;;;5.60;100.00;104062.84;6246363;23;20038;-67
2022/01/12 11:38:59;;;;;;;4.03;3.67;;;;;;;5.72;100.00;104057.94;6188952;23;20019;-67
2022/01/12 11:41:33;;;;;;;2.97;2.67;;;;;;;5.31;100.00;104054.09;6216872;23;20005;-67
2022/01/12 11:43:58;;;;;;;4.53;3.42;;;;;;;5.57;100.00;104047.84;6215891;23;20032;-67
2022/01/12 11:46:27;;;;;;;2.55;2.20;;;;;;;5.36;100.00;104049.84;6216611;23;20000;-66
2022/01/12 11:48:58;;;;;;;4.07;3.08;;;;;;;5.49;100.00;104041.47;6190290;23;20330;-65
2022/01/12 11:51:42;;;;;;;4.45;3.05;;;;;;;5.30;100.00;104041.78;6216975;23;20009;-67
2022/01/12 11:54:13;;;;;;;4.97;2.55;;;;;;;5.68;100.00;104038.50;6217623;23;20079;-66
2022/01/12 11:56:54;;;;;;;3.40;2.38;;;;;;;5.66;100.00;104041.94;6191365;23;20012;-67
2022/01/12 11:59:20;;;;;;;2.65;2.35;;;;;;;5.63;100.00;104041.84;6218241;23;20009;-68
2022/01/12 12:01:50;;;;;;;2.03;1.83;;;;;;;5.70;100.00;104044.72;6192315;23;20445;-68
2022/01/12 12:04:32;;;;;;;4.18;2.60;;;;;;;5.63;100.00;104033.94;6192789;23;20092;-68
2022/01/12 12:07:11;;;;;;;2.55;2.05;;;;;;;5.61;100.00;104033.03;6220667;23;20031;-69
2022/01/12 12:09:56;;;;;;;3.05;2.75;;;;;;;5.66;100.00;104034.00;6218954;23;20051;-67
2022/01/12 12:12:32;;;;;;;3.30;2.13;;;;;;;5.32;100.00;104039.19;6216945;23;20005;-66
2022/01/12 12:14:59;;;;;;;2.60;2.40;;;;;;;5.41;100.00;104034.16;6187950;23;20011;-67
2022/01/12 12:17:28;;;;;;;3.20;2.38;;;;;;;5.33;100.00;104039.22;6214796;23;20031;-68
2022/01/12 12:19:54;;;;;;;6.40;2.97;;;;;;;5.55;100.00;104023.19;6214491;23;20076;-68
2022/01/12 12:22:29;;;;;;;5.85;2.38;;;;;;;5.69;100.00;104032.38;6215128;23;20377;-67
2022/01/12 12:24:58;;;;;;;5.03;3.20;;;;;;;5.58;100.00;104031.16;6190395;23;20004;-69
2022/01/12 12:27:26;;;;;;;3.70;3.50;;;;;;;5.66;100.00;104031.38;6189363;23;20019;-68
2022/01/12 12:29:51;;;;;;;5.80;3.28;;;;;;;5.47;100.00;104018.53;6215816;23;20015;-69
2022/01/12 12:32:19;;;;;;;6.53;2.97;;;;;;;5.45;100.00;104014.97;6190446;23;20346;-67
2022/01/12 12:34:45;;;;;;;5.15;3.17;;;;;;;5.58;100.00;104014.44;6191132;23;20477;-71
2022/01/12 12:37:14;;;;;;;7.93;3.58;;;;;;;5.77;100.00;104008.84;6201116;23;20023;-68
2022/01/12 12:39:45;;;;;;;13.30;4.35;;;;;;;5.59;100.00;104016.25;6249380;23;20075;-69
2022/01/12 12:42:19;;;;;;;6.60;4.40;;;;;;;5.72;100.00;104007.84;6220994;23;20008;-68
2022/01/12 12:44:46;;;;;;;4.55;2.80;;;;;;;5.53;100.00;104001.13;6222392;23;20322;-69
2022/01/12 12:47:14;;;;;;;3.30;3.00;;;;;;;5.68;100.00;103998.03;6249168;23;20015;-69